Time;durP1;ratioP1;P1;durP2;ratioP2;P2;SDS_P1;SDS_P2;PMS_P1;PMS_P2;Temp;Humidity;BMP_temperature;BMP_pressure;BME280_temperature;BME280_humidity;BME280_pressure;Samples;Min_cycle;Max_cycle;Signal;HPM_P1;HPM_P2
2023/05/17 00:02:25;;;;;;;;;;;8.20;99.90;;;;;;5106644;28;19995;-68
2023/05/17 00:04:52;;;;;;;;;;;8.10;99.90;;;;;;5106526;28;20163;-68
2023/05/17 00:07:19;;;;;;;;;;;8.10;99.90;;;;;;5105786;28;19920;-68
2023/05/17 00:09:45;;;;;;;;;;;8.00;99.90;;;;;;5106513;28;19983;-68
2023/05/17 00:12:12;;;;;;;;;;;8.00;99.90;;;;;;5106192;28;19991;-69
2023/05/17 00:14:39;;;;;;;;;;;8.00;99.90;;;;;;5101080;28;19987;-67
2023/05/17 00:17:06;;;;;;;;;;;8.00;99.90;;;;;;5084267;28;19920;-68
2023/05/17 00:19:34;;;;;;;;;;;8.00;99.90;;;;;;5084540;28;19930;-67
2023/05/17 00:22:00;;;;;;;;;;;8.00;99.90;;;;;;5085055;28;20267;-68
2023/05/17 00:24:27;;;;;;;;;;;7.90;99.90;;;;;;5085548;28;20352;-68
2023/05/17 00:26:53;;;;;;;;;;;7.90;99.90;;;;;;5085441;28;19927;-67
2023/05/17 00:29:20;;;;;;;;;;;7.90;99.90;;;;;;5085657;28;20115;-69
2023/05/17 00:31:47;;;;;;;;;;;7.90;99.90;;;;;;5085832;28;19992;-68
2023/05/17 00:34:13;;;;;;;;;;;7.90;99.90;;;;;;5088285;28;19992;-68
2023/05/17 00:36:41;;;;;;;;;;;7.80;99.90;;;;;;5105046;28;20169;-68
2023/05/17 00:39:08;;;;;;;;;;;7.80;99.90;;;;;;5105959;28;20172;-67
2023/05/17 00:41:34;;;;;;;;;;;7.80;99.90;;;;;;5105665;28;19952;-70
2023/05/17 00:44:01;;;;;;;;;;;7.80;99.90;;;;;;5105801;28;19920;-68
2023/05/17 00:46:28;;;;;;;;;;;7.70;99.90;;;;;;5105228;28;20177;-68
2023/05/17 00:48:54;;;;;;;;;;;7.70;99.90;;;;;;5105811;28;19991;-68
2023/05/17 00:51:21;;;;;;;;;;;7.60;99.90;;;;;;5105528;28;19920;-68
2023/05/17 00:53:49;;;;;;;;;;;7.60;99.90;;;;;;5105718;28;19926;-67
2023/05/17 00:56:16;;;;;;;;;;;7.60;99.90;;;;;;5105427;28;19987;-69
2023/05/17 00:58:43;;;;;;;;;;;7.60;99.90;;;;;;5105566;28;19959;-68
2023/05/17 01:01:09;;;;;;;;;;;7.60;99.90;;;;;;5104521;28;19920;-72
2023/05/17 01:03:36;;;;;;;;;;;7.50;99.90;;;;;;5105505;28;19988;-71
2023/05/17 01:06:04;;;;;;;;;;;7.50;99.90;;;;;;5104913;28;19927;-68
2023/05/17 01:08:31;;;;;;;;;;;7.40;99.90;;;;;;5105165;28;20284;-66
2023/05/17 01:11:01;;;;;;;;;;;7.40;99.90;;;;;;5105494;28;19927;-67
2023/05/17 01:13:32;;;;;;;;;;;7.30;99.90;;;;;;5088007;28;19927;-66
2023/05/17 01:16:05;;;;;;;;;;;7.30;99.90;;;;;;5084865;28;19924;-69
2023/05/17 01:18:34;;;;;;;;;;;7.30;99.90;;;;;;5084816;28;20034;-67
2023/05/17 01:21:01;;;;;;;;;;;7.20;99.90;;;;;;5084591;28;19956;-67
2023/05/17 01:23:35;;;;;;;;;;;7.20;99.90;;;;;;5084930;28;19987;-67
2023/05/17 01:26:07;;;;;;;;;;;7.10;99.90;;;;;;5084822;28;20226;-67
2023/05/17 01:28:36;;;;;;;;;;;7.10;99.90;;;;;;5084781;28;19962;-67
2023/05/17 01:31:03;;;;;;;;;;;7.10;99.90;;;;;;5084504;28;19987;-67
2023/05/17 01:33:30;;;;;;;;;;;7.00;99.90;;;;;;5084619;28;19987;-67
2023/05/17 01:35:57;;;;;;;;;;;7.00;99.90;;;;;;5084184;28;19948;-68
2023/05/17 01:38:24;;;;;;;;;;;7.00;99.90;;;;;;5084175;28;20169;-66
2023/05/17 01:40:53;;;;;;;;;;;7.00;99.90;;;;;;5084200;28;19987;-67
2023/05/17 01:43:22;;;;;;;;;;;6.90;99.90;;;;;;5084357;28;19983;-67
2023/05/17 01:45:56;;;;;;;;;;;6.90;99.90;;;;;;5084268;28;19921;-66
2023/05/17 01:48:26;;;;;;;;;;;6.80;99.90;;;;;;5084226;28;19983;-67
2023/05/17 01:50:54;;;;;;;;;;;6.80;99.90;;;;;;5084280;28;19987;-67
2023/05/17 01:53:24;;;;;;;;;;;6.80;99.90;;;;;;5084174;28;19963;-67
2023/05/17 01:55:51;;;;;;;;;;;6.80;99.90;;;;;;5083662;28;19920;-66
2023/05/17 01:58:20;;;;;;;;;;;6.70;99.90;;;;;;5083919;28;19927;-66
2023/05/17 02:00:48;;;;;;;;;;;6.70;99.90;;;;;;5084186;28;19928;-67
2023/05/17 02:03:18;;;;;;;;;;;6.70;99.90;;;;;;5083827;28;19920;-67
2023/05/17 02:05:45;;;;;;;;;;;6.70;99.90;;;;;;5083665;28;19924;-66
2023/05/17 02:08:11;;;;;;;;;;;6.70;99.90;;;;;;5083364;28;19942;-68
2023/05/17 02:10:38;;;;;;;;;;;6.60;99.90;;;;;;5083981;28;19943;-67
2023/05/17 02:13:05;;;;;;;;;;;6.60;99.90;;;;;;5083584;28;19984;-68
2023/05/17 02:15:31;;;;;;;;;;;6.60;99.90;;;;;;5085518;28;19988;-67
2023/05/17 02:17:58;;;;;;;;;;;6.60;99.90;;;;;;5103497;28;20107;-67
2023/05/17 02:20:26;;;;;;;;;;;6.60;99.90;;;;;;5104078;28;19982;-66
2023/05/17 02:22:52;;;;;;;;;;;6.60;99.90;;;;;;5104100;28;19919;-66
2023/05/17 02:25:19;;;;;;;;;;;6.50;99.90;;;;;;5102251;28;20144;-67
2023/05/17 02:27:46;;;;;;;;;;;6.50;99.90;;;;;;5082946;28;19988;-67
2023/05/17 02:30:15;;;;;;;;;;;6.50;99.90;;;;;;5081472;28;19984;-68
2023/05/17 02:32:42;;;;;;;;;;;6.50;99.90;;;;;;5083559;28;20231;-67
2023/05/17 02:35:09;;;;;;;;;;;6.50;99.90;;;;;;5083496;28;19921;-69
2023/05/17 02:37:37;;;;;;;;;;;6.50;99.90;;;;;;5082974;28;20139;-67
2023/05/17 02:40:07;;;;;;;;;;;6.50;99.90;;;;;;5083732;28;19926;-67
2023/05/17 02:42:34;;;;;;;;;;;6.40;99.90;;;;;;5083588;28;19920;-68
2023/05/17 02:45:00;;;;;;;;;;;6.40;99.90;;;;;;5083496;28;19934;-68
2023/05/17 02:47:27;;;;;;;;;;;6.40;99.90;;;;;;5082910;28;19983;-69
2023/05/17 02:49:54;;;;;;;;;;;6.40;99.90;;;;;;5083313;28;19980;-67
2023/05/17 02:52:20;;;;;;;;;;;6.40;99.90;;;;;;5083554;28;19928;-67
2023/05/17 02:54:48;;;;;;;;;;;6.40;99.90;;;;;;5083395;28;20218;-67
2023/05/17 02:57:15;;;;;;;;;;;6.40;99.90;;;;;;5082565;28;19920;-68
2023/05/17 02:59:42;;;;;;;;;;;6.30;99.90;;;;;;5083128;28;20267;-67
2023/05/17 03:02:08;;;;;;;;;;;6.30;99.90;;;;;;5083450;28;19963;-68
2023/05/17 03:04:35;;;;;;;;;;;6.30;99.90;;;;;;5083303;28;19983;-68
2023/05/17 03:07:02;;;;;;;;;;;6.30;99.90;;;;;;5082435;28;19920;-66
2023/05/17 03:09:29;;;;;;;;;;;6.20;99.90;;;;;;5083438;28;19920;-67
2023/05/17 03:11:57;;;;;;;;;;;6.20;99.90;;;;;;5082988;28;20224;-66
2023/05/17 03:14:24;;;;;;;;;;;6.10;99.90;;;;;;5082997;28;19926;-67
2023/05/17 03:16:51;;;;;;;;;;;6.10;99.90;;;;;;5082250;28;19983;-68
2023/05/17 03:19:19;;;;;;;;;;;6.10;99.90;;;;;;5102168;28;20995;-67
2023/05/17 03:21:46;;;;;;;;;;;6.00;99.90;;;;;;5103426;28;19962;-68
2023/05/17 03:24:12;;;;;;;;;;;6.00;99.90;;;;;;5103582;28;19975;-67
2023/05/17 03:26:39;;;;;;;;;;;6.00;99.90;;;;;;5106615;28;19927;-68
2023/05/17 03:29:07;;;;;;;;;;;5.90;99.90;;;;;;5105109;28;19920;-67
2023/05/17 03:31:34;;;;;;;;;;;5.90;99.90;;;;;;5107126;28;19920;-67
2023/05/17 03:34:01;;;;;;;;;;;5.90;99.90;;;;;;5107236;28;19983;-69
2023/05/17 03:36:27;;;;;;;;;;;5.90;99.90;;;;;;5106197;28;20208;-66
2023/05/17 03:38:54;;;;;;;;;;;5.90;99.90;;;;;;5106972;28;19920;-68
2023/05/17 03:41:20;;;;;;;;;;;5.90;99.90;;;;;;5107169;28;19920;-67
2023/05/17 03:43:47;;;;;;;;;;;5.90;99.90;;;;;;5107048;28;20167;-67
2023/05/17 03:46:15;;;;;;;;;;;5.90;99.90;;;;;;5106631;28;19961;-68
2023/05/17 03:48:41;;;;;;;;;;;5.90;99.90;;;;;;5107009;28;19987;-66
2023/05/17 03:51:08;;;;;;;;;;;5.90;99.90;;;;;;5107025;28;20172;-67
2023/05/17 03:53:39;;;;;;;;;;;5.90;99.90;;;;;;5107087;28;19927;-66
2023/05/17 03:56:06;;;;;;;;;;;5.90;99.90;;;;;;5106414;28;19920;-67
2023/05/17 03:58:33;;;;;;;;;;;5.90;99.90;;;;;;5106676;28;19920;-68
2023/05/17 04:00:59;;;;;;;;;;;5.80;99.90;;;;;;5106635;28;19920;-66
2023/05/17 04:03:27;;;;;;;;;;;5.80;99.90;;;;;;5106374;28;19956;-67
2023/05/17 04:05:54;;;;;;;;;;;5.90;99.90;;;;;;5102281;28;20174;-67
2023/05/17 04:08:21;;;;;;;;;;;5.90;99.90;;;;;;5086093;28;19983;-67
2023/05/17 04:10:48;;;;;;;;;;;5.90;99.90;;;;;;5086263;28;19926;-67
2023/05/17 04:13:14;;;;;;;;;;;6.00;99.90;;;;;;5086222;28;19956;-68
2023/05/17 04:15:41;;;;;;;;;;;6.00;99.90;;;;;;5085499;28;19988;-67
2023/05/17 04:18:07;;;;;;;;;;;6.10;99.90;;;;;;5085464;28;19995;-67
2023/05/17 04:20:35;;;;;;;;;;;6.10;99.90;;;;;;5086132;28;20163;-67
2023/05/17 04:23:02;;;;;;;;;;;6.10;99.90;;;;;;5086155;28;19926;-69
2023/05/17 04:25:29;;;;;;;;;;;6.10;99.90;;;;;;5085617;28;19975;-67
2023/05/17 04:27:55;;;;;;;;;;;6.20;99.90;;;;;;5085060;28;20260;-67
2023/05/17 04:30:22;;;;;;;;;;;6.20;99.90;;;;;;5085892;28;19924;-67
2023/05/17 04:32:49;;;;;;;;;;;6.20;99.90;;;;;;5085641;28;20239;-66
2023/05/17 04:35:16;;;;;;;;;;;6.20;99.90;;;;;;5085333;28;19920;-68
2023/05/17 04:37:44;;;;;;;;;;;6.20;99.90;;;;;;5102574;28;19979;-66
2023/05/17 04:40:11;;;;;;;;;;;6.30;99.90;;;;;;5105597;28;20208;-67
2023/05/17 04:42:38;;;;;;;;;;;6.30;99.90;;;;;;5105938;28;19983;-67
2023/05/17 04:45:05;;;;;;;;;;;6.30;99.90;;;;;;5105411;28;19927;-65
2023/05/17 04:47:31;;;;;;;;;;;6.30;99.90;;;;;;5104717;28;20009;-66
2023/05/17 04:49:58;;;;;;;;;;;6.20;99.90;;;;;;5105876;28;19983;-67
2023/05/17 04:52:25;;;;;;;;;;;6.30;99.90;;;;;;5105828;28;19958;-66
2023/05/17 04:54:53;;;;;;;;;;;6.30;99.90;;;;;;5105313;28;20263;-67
2023/05/17 04:57:20;;;;;;;;;;;6.40;99.90;;;;;;5104992;28;19927;-68
2023/05/17 04:59:46;;;;;;;;;;;6.50;99.90;;;;;;5105263;28;20238;-67
2023/05/17 05:02:13;;;;;;;;;;;6.50;99.90;;;;;;5105592;28;19962;-66
2023/05/17 05:04:40;;;;;;;;;;;6.50;99.90;;;;;;5105304;28;19919;-65
2023/05/17 05:07:07;;;;;;;;;;;6.60;99.90;;;;;;5104482;28;19979;-66
2023/05/17 05:09:33;;;;;;;;;;;6.70;99.90;;;;;;5105094;28;19983;-65
2023/05/17 05:12:01;;;;;;;;;;;6.70;99.90;;;;;;5105328;28;20122;-66
2023/05/17 05:14:28;;;;;;;;;;;6.70;99.90;;;;;;5100336;28;20209;-66
2023/05/17 05:16:55;;;;;;;;;;;6.80;99.90;;;;;;5084208;28;20110;-67
2023/05/17 05:19:22;;;;;;;;;;;6.90;99.90;;;;;;5084601;28;19963;-65
2023/05/17 05:21:48;;;;;;;;;;;6.90;99.90;;;;;;5084609;28;19926;-66
2023/05/17 05:24:15;;;;;;;;;;;6.80;99.90;;;;;;5084705;28;19956;-65
2023/05/17 05:26:43;;;;;;;;;;;6.90;99.90;;;;;;5083857;28;19927;-65
2023/05/17 05:29:11;;;;;;;;;;;6.90;99.90;;;;;;5083901;28;19921;-65
2023/05/17 05:31:38;;;;;;;;;;;6.90;99.90;;;;;;5084460;28;20208;-70
2023/05/17 05:34:04;;;;;;;;;;;7.00;99.90;;;;;;5084456;28;19921;-66
2023/05/17 05:36:31;;;;;;;;;;;7.00;99.90;;;;;;5085200;28;19979;-68
2023/05/17 05:38:58;;;;;;;;;;;7.00;99.90;;;;;;5095618;28;19928;-66
2023/05/17 05:41:25;;;;;;;;;;;7.10;99.90;;;;;;5092779;28;19983;-65
2023/05/17 05:43:51;;;;;;;;;;;7.00;99.90;;;;;;5084047;28;19925;-67
2023/05/17 05:46:19;;;;;;;;;;;7.10;99.90;;;;;;5100082;28;20358;-70
2023/05/17 05:48:46;;;;;;;;;;;7.10;99.90;;;;;;5104251;28;19920;-66
2023/05/17 05:51:12;;;;;;;;;;;7.20;99.90;;;;;;5104437;28;19920;-66
2023/05/17 05:53:39;;;;;;;;;;;7.20;99.90;;;;;;5097412;28;20180;-66
2023/05/17 05:56:06;;;;;;;;;;;7.20;99.90;;;;;;5083716;28;19988;-67
2023/05/17 05:58:32;;;;;;;;;;;7.30;99.90;;;;;;5083254;28;19995;-70
2023/05/17 06:00:59;;;;;;;;;;;7.20;99.90;;;;;;5084018;28;19934;-68
2023/05/17 06:03:27;;;;;;;;;;;7.20;99.90;;;;;;5084176;28;19920;-66
2023/05/17 06:05:54;;;;;;;;;;;7.30;99.90;;;;;;5083617;28;19920;-68
2023/05/17 06:08:21;;;;;;;;;;;7.40;99.90;;;;;;5083311;28;19955;-69
2023/05/17 06:10:47;;;;;;;;;;;7.40;99.90;;;;;;5091497;28;19991;-68
2023/05/17 06:13:14;;;;;;;;;;;7.40;99.90;;;;;;5104301;28;19951;-68
2023/05/17 06:15:41;;;;;;;;;;;7.40;99.90;;;;;;5103496;28;20209;-67
2023/05/17 06:18:07;;;;;;;;;;;7.50;99.90;;;;;;5103786;28;19990;-67
2023/05/17 06:20:35;;;;;;;;;;;7.60;99.90;;;;;;5104203;28;19920;-68
2023/05/17 06:23:03;;;;;;;;;;;7.60;99.90;;;;;;5104192;28;20127;-67
2023/05/17 06:25:30;;;;;;;;;;;7.70;99.90;;;;;;5103622;28;19920;-67
2023/05/17 06:27:57;;;;;;;;;;;7.70;99.90;;;;;;5103875;28;19955;-68
2023/05/17 06:30:23;;;;;;;;;;;7.80;99.90;;;;;;5104007;28;19959;-67
2023/05/17 06:32:50;;;;;;;;;;;7.80;99.90;;;;;;5103667;28;20283;-68
2023/05/17 06:35:16;;;;;;;;;;;7.90;99.90;;;;;;5103508;28;20204;-67
2023/05/17 06:37:44;;;;;;;;;;;8.00;99.90;;;;;;5096625;28;19926;-67
2023/05/17 06:40:12;;;;;;;;;;;8.00;99.90;;;;;;5103723;28;19983;-67
2023/05/17 06:42:39;;;;;;;;;;;8.10;99.90;;;;;;5103989;28;19927;-67
2023/05/17 06:45:07;;;;;;;;;;;8.20;99.90;;;;;;5095340;28;19958;-68
2023/05/17 06:47:33;;;;;;;;;;;8.20;99.90;;;;;;5083070;28;20112;-69
2023/05/17 06:50:00;;;;;;;;;;;8.30;99.90;;;;;;5083598;28;19983;-67
2023/05/17 06:52:26;;;;;;;;;;;8.30;99.90;;;;;;5083590;28;19955;-69
2023/05/17 06:54:54;;;;;;;;;;;8.40;99.90;;;;;;5083428;28;19979;-68
2023/05/17 06:57:21;;;;;;;;;;;8.40;99.90;;;;;;5083281;28;19927;-68
2023/05/17 06:59:48;;;;;;;;;;;8.50;99.90;;;;;;5084260;28;20208;-68
2023/05/17 07:02:14;;;;;;;;;;;8.60;99.90;;;;;;5087624;28;19920;-67
2023/05/17 07:04:41;;;;;;;;;;;8.70;99.90;;;;;;5087663;28;19924;-69
2023/05/17 07:07:08;;;;;;;;;;;8.80;99.90;;;;;;5087011;28;19955;-68
2023/05/17 07:09:34;;;;;;;;;;;8.90;99.90;;;;;;5087561;28;19983;-67
2023/05/17 07:12:02;;;;;;;;;;;9.00;99.90;;;;;;5087387;28;19921;-66
2023/05/17 07:14:29;;;;;;;;;;;9.00;99.90;;;;;;5087121;28;19920;-67
2023/05/17 07:16:55;;;;;;;;;;;9.10;99.90;;;;;;5086645;28;19959;-67
2023/05/17 07:19:22;;;;;;;;;;;9.10;99.90;;;;;;5087135;28;19924;-68
2023/05/17 07:21:49;;;;;;;;;;;9.10;99.90;;;;;;5087188;28;19951;-67
2023/05/17 07:24:15;;;;;;;;;;;9.10;99.90;;;;;;5086968;28;20208;-68
2023/05/17 07:26:42;;;;;;;;;;;9.10;99.90;;;;;;5106534;28;19962;-66
2023/05/17 07:29:10;;;;;;;;;;;9.20;99.90;;;;;;5106943;28;19924;-68
2023/05/17 07:31:37;;;;;;;;;;;9.20;99.90;;;;;;5107369;28;19983;-67
2023/05/17 07:34:04;;;;;;;;;;;9.30;99.90;;;;;;5095619;28;19952;-69
2023/05/17 07:36:30;;;;;;;;;;;9.40;99.90;;;;;;5086222;28;19996;-67
2023/05/17 07:38:57;;;;;;;;;;;9.50;99.90;;;;;;5102083;28;20011;-67
2023/05/17 07:41:25;;;;;;;;;;;9.60;99.90;;;;;;5107132;28;19926;-67
2023/05/17 07:43:52;;;;;;;;;;;9.70;99.90;;;;;;5106970;28;19920;-69
2023/05/17 07:46:20;;;;;;;;;;;9.80;99.90;;;;;;5105426;28;19979;-68
2023/05/17 07:48:47;;;;;;;;;;;9.90;99.90;;;;;;5106621;28;20112;-68
2023/05/17 07:51:13;;;;;;;;;;;9.90;99.90;;;;;;5106659;28;19987;-67
2023/05/17 07:53:40;;;;;;;;;;;9.90;99.90;;;;;;5127105;28;19984;-67
2023/05/17 07:56:07;;;;;;;;;;;10.00;99.90;;;;;;5126510;28;19927;-69
2023/05/17 07:58:35;;;;;;;;;;;10.00;99.90;;;;;;5124361;28;19920;-67
2023/05/17 08:01:01;;;;;;;;;;;10.00;99.90;;;;;;5127045;28;20172;-68
2023/05/17 08:03:29;;;;;;;;;;;10.00;99.90;;;;;;5126825;28;19983;-68
2023/05/17 08:05:56;;;;;;;;;;;9.90;99.90;;;;;;5126353;27;20203;-67
2023/05/17 08:08:23;;;;;;;;;;;10.00;99.90;;;;;;5104667;28;19979;-67
2023/05/17 08:10:49;;;;;;;;;;;10.00;99.90;;;;;;5105817;28;19920;-67
2023/05/17 08:13:16;;;;;;;;;;;9.90;99.90;;;;;;5106150;28;19979;-67
2023/05/17 08:15:43;;;;;;;;;;;10.00;99.90;;;;;;5106022;28;19920;-67
2023/05/17 08:18:09;;;;;;;;;;;10.10;99.90;;;;;;5105599;28;20164;-69
2023/05/17 08:20:37;;;;;;;;;;;10.20;99.90;;;;;;5105888;28;20204;-68
2023/05/17 08:23:04;;;;;;;;;;;10.30;99.90;;;;;;5105856;28;19955;-68
2023/05/17 08:25:31;;;;;;;;;;;10.30;99.90;;;;;;5105807;28;19926;-66
2023/05/17 08:27:57;;;;;;;;;;;10.30;99.90;;;;;;5105696;28;19943;-67
2023/05/17 08:30:24;;;;;;;;;;;10.40;99.90;;;;;;5106229;28;19962;-67
2023/05/17 08:32:50;;;;;;;;;;;10.50;99.90;;;;;;5106178;28;19955;-66
2023/05/17 08:35:17;;;;;;;;;;;10.50;99.90;;;;;;5105891;28;19920;-67
2023/05/17 08:37:45;;;;;;;;;;;10.50;99.90;;;;;;5103886;28;20116;-67
2023/05/17 08:40:13;;;;;;;;;;;10.60;99.90;;;;;;5105623;28;19927;-67
2023/05/17 08:42:41;;;;;;;;;;;10.60;99.90;;;;;;5106019;28;19956;-66
2023/05/17 08:45:09;;;;;;;;;;;10.70;99.90;;;;;;5096512;28;19951;-67
2023/05/17 08:47:36;;;;;;;;;;;10.80;99.90;;;;;;5084759;28;19920;-68
2023/05/17 08:50:04;;;;;;;;;;;10.80;99.90;;;;;;5085659;28;19920;-68
2023/05/17 08:52:32;;;;;;;;;;;10.90;99.90;;;;;;5085161;28;20234;-67
2023/05/17 08:55:01;;;;;;;;;;;10.90;99.90;;;;;;5085279;28;19967;-68
2023/05/17 08:57:28;;;;;;;;;;;10.80;99.90;;;;;;5084803;28;19920;-68
2023/05/17 08:59:55;;;;;;;;;;;10.90;99.90;;;;;;5085326;28;19920;-67
2023/05/17 09:02:23;;;;;;;;;;;10.90;99.90;;;;;;5085357;28;19920;-67
2023/05/17 09:04:54;;;;;;;;;;;11.00;99.90;;;;;;5085242;28;19921;-68
2023/05/17 09:07:21;;;;;;;;;;;11.20;99.90;;;;;;5084469;28;19952;-67
2023/05/17 09:09:47;;;;;;;;;;;11.30;99.90;;;;;;5084159;28;19942;-68
2023/05/17 09:12:15;;;;;;;;;;;11.40;99.90;;;;;;5085565;28;19920;-67
2023/05/17 09:14:42;;;;;;;;;;;11.50;99.90;;;;;;5090680;28;19943;-69
2023/05/17 09:17:13;;;;;;;;;;;11.60;99.90;;;;;;5104372;28;19959;-68
2023/05/17 09:19:43;;;;;;;;;;;11.60;99.90;;;;;;5104696;28;19920;-67
2023/05/17 09:22:12;;;;;;;;;;;11.60;99.90;;;;;;5104387;28;19965;-69
2023/05/17 09:24:39;;;;;;;;;;;11.60;99.90;;;;;;5104714;28;20228;-67
2023/05/17 09:27:06;;;;;;;;;;;11.60;99.90;;;;;;5104070;28;19926;-67
2023/05/17 09:29:35;;;;;;;;;;;11.50;99.90;;;;;;5104782;28;19920;-67
2023/05/17 09:32:14;;;;;;;;;;;11.40;99.90;;;;;;5104372;28;19920;-66
2023/05/17 09:34:41;;;;;;;;;;;11.50;99.90;;;;;;5104750;28;19920;-67
2023/05/17 09:37:12;;;;;;;;;;;11.60;99.90;;;;;;5102362;28;20204;-66
2023/05/17 09:39:40;;;;;;;;;;;11.70;99.90;;;;;;5104659;28;20025;-68
2023/05/17 09:42:06;;;;;;;;;;;11.80;99.90;;;;;;5104683;28;19920;-68
2023/05/17 09:44:44;;;;;;;;;;;11.90;99.90;;;;;;5104335;28;20208;-66
2023/05/17 09:47:11;;;;;;;;;;;11.70;99.90;;;;;;5103997;28;19920;-67
2023/05/17 09:49:38;;;;;;;;;;;11.70;99.90;;;;;;5104597;28;20000;-67
2023/05/17 09:52:07;;;;;;;;;;;11.60;99.90;;;;;;5104408;28;19983;-66
2023/05/17 09:54:40;;;;;;;;;;;11.50;99.90;;;;;;5104581;28;19987;-68
2023/05/17 09:57:09;;;;;;;;;;;11.50;99.90;;;;;;5104083;28;19920;-66
2023/05/17 09:59:36;;;;;;;;;;;11.50;99.90;;;;;;5103043;28;19921;-66
2023/05/17 10:02:05;;;;;;;;;;;11.50;99.90;;;;;;5104060;28;19926;-67
2023/05/17 10:04:36;;;;;;;;;;;11.70;99.90;;;;;;5104319;28;19955;-67
2023/05/17 10:07:04;;;;;;;;;;;11.60;99.90;;;;;;5103808;28;19920;-68
2023/05/17 10:09:34;;;;;;;;;;;11.50;99.90;;;;;;5103607;28;19988;-67
2023/05/17 10:12:02;;;;;;;;;;;11.50;99.90;;;;;;5101794;28;19920;-67
2023/05/17 10:14:30;;;;;;;;;;;11.50;99.90;;;;;;5083859;28;19983;-67
2023/05/17 10:16:58;;;;;;;;;;;11.50;99.90;;;;;;5083037;28;20116;-67
2023/05/17 10:19:26;;;;;;;;;;;11.50;99.90;;;;;;5083723;28;19928;-67
2023/05/17 10:21:53;;;;;;;;;;;11.50;99.90;;;;;;5083872;28;19920;-66
2023/05/17 10:24:20;;;;;;;;;;;11.40;99.90;;;;;;5083651;28;19958;-66
2023/05/17 10:26:48;;;;;;;;;;;11.40;99.90;;;;;;5083476;28;20152;-66
2023/05/17 10:29:15;;;;;;;;;;;11.30;99.90;;;;;;5081951;28;19941;-67
2023/05/17 10:31:43;;;;;;;;;;;11.20;99.90;;;;;;5083670;28;20158;-67
2023/05/17 10:34:10;;;;;;;;;;;11.10;99.90;;;;;;5092949;28;19979;-66
2023/05/17 10:36:38;;;;;;;;;;;11.20;99.90;;;;;;5092463;28;19920;-66
2023/05/17 10:39:07;;;;;;;;;;;11.20;99.90;;;;;;5097121;28;19920;-67
2023/05/17 10:41:34;;;;;;;;;;;11.30;99.90;;;;;;5095524;28;19953;-67
2023/05/17 10:44:01;;;;;;;;;;;11.30;99.90;;;;;;5095691;28;20323;-68
2023/05/17 10:46:29;;;;;;;;;;;11.30;99.90;;;;;;5082791;28;19928;-68
2023/05/17 10:48:57;;;;;;;;;;;11.40;99.90;;;;;;5083418;28;20028;-68
2023/05/17 10:51:24;;;;;;;;;;;11.40;99.90;;;;;;5083532;28;19983;-68
2023/05/17 10:54:05;;;;;;;;;;;11.40;99.90;;;;;;5083338;28;19974;-67
2023/05/17 10:56:32;;;;;;;;;;;11.40;99.90;;;;;;5082412;28;19920;-68
2023/05/17 10:59:20;;;;;;;;;;;11.50;99.90;;;;;;5082978;28;19987;-68
2023/05/17 11:01:51;;;;;;;;;;;11.50;99.90;;;;;;5074568;28;19942;-67
2023/05/17 11:04:22;;;;;;;;;;;11.60;99.90;;;;;;5082448;28;19921;-67
2023/05/17 11:06:49;;;;;;;;;;;11.50;99.90;;;;;;5082933;28;20204;-67
2023/05/17 11:09:17;;;;;;;;;;;11.50;99.90;;;;;;5082513;28;20227;-69
2023/05/17 11:12:02;;;;;;;;;;;11.40;99.90;;;;;;5083287;28;19920;-68
2023/05/17 11:14:42;;;;;;;;;;;11.40;99.90;;;;;;5083049;28;19987;-67
2023/05/17 11:17:12;;;;;;;;;;;11.20;99.90;;;;;;5082770;28;20358;-67
2023/05/17 11:19:38;;;;;;;;;;;11.20;99.90;;;;;;5083061;28;20271;-68
2023/05/17 11:22:10;;;;;;;;;;;11.20;99.90;;;;;;5083284;28;19964;-68
2023/05/17 11:24:41;;;;;;;;;;;11.20;99.90;;;;;;5082874;28;20240;-67
2023/05/17 11:27:07;;;;;;;;;;;11.20;99.90;;;;;;5082653;28;19921;-68
2023/05/17 11:29:34;;;;;;;;;;;11.30;99.90;;;;;;5082855;28;19980;-67
2023/05/17 11:32:04;;;;;;;;;;;11.30;99.90;;;;;;5083063;28;19927;-67
2023/05/17 11:34:33;;;;;;;;;;;11.30;99.90;;;;;;5083060;28;19921;-68
2023/05/17 11:36:59;;;;;;;;;;;11.20;99.90;;;;;;5081172;28;19962;-67
2023/05/17 11:39:26;;;;;;;;;;;11.20;99.90;;;;;;5083066;28;19920;-67
2023/05/17 11:41:54;;;;;;;;;;;11.20;99.90;;;;;;5083004;28;19924;-69
2023/05/17 11:44:24;;;;;;;;;;;11.20;99.90;;;;;;5082459;28;19920;-66
2023/05/17 11:46:50;;;;;;;;;;;11.30;99.90;;;;;;5084534;28;19920;-66
2023/05/17 11:49:17;;;;;;;;;;;11.30;99.90;;;;;;5086645;28;19970;-71
2023/05/17 11:51:45;;;;;;;;;;;11.30;99.90;;;;;;5086457;28;19927;-69
2023/05/17 11:54:14;;;;;;;;;;;11.20;99.90;;;;;;5084577;28;19987;-71
2023/05/17 11:56:41;;;;;;;;;;;11.10;99.90;;;;;;5085697;28;19982;-69
2023/05/17 11:59:10;;;;;;;;;;;11.10;99.90;;;;;;5086186;28;20226;-70
2023/05/17 12:01:43;;;;;;;;;;;11.00;99.90;;;;;;5086277;28;19920;-70
2023/05/17 12:04:09;;;;;;;;;;;11.00;99.90;;;;;;5086251;28;19921;-69
2023/05/17 12:06:36;;;;;;;;;;;11.00;99.90;;;;;;5085642;28;19983;-70
2023/05/17 12:09:04;;;;;;;;;;;11.10;99.90;;;;;;5086291;28;19999;-69
2023/05/17 12:11:31;;;;;;;;;;;11.20;99.90;;;;;;5086287;28;19927;-69
2023/05/17 12:13:58;;;;;;;;;;;11.20;99.90;;;;;;5085883;28;20023;-69
2023/05/17 12:16:26;;;;;;;;;;;11.30;99.90;;;;;;5085662;28;19929;-69
2023/05/17 12:18:53;;;;;;;;;;;11.40;99.90;;;;;;5085085;28;19920;-69
2023/05/17 12:21:20;;;;;;;;;;;11.40;99.90;;;;;;5084705;28;20267;-71
2023/05/17 12:23:50;;;;;;;;;;;11.10;99.90;;;;;;5085477;28;19921;-69
2023/05/17 12:26:17;;;;;;;;;;;11.20;99.90;;;;;;5085620;28;19928;-70
2023/05/17 12:28:45;;;;;;;;;;;11.10;99.90;;;;;;5085602;28;19984;-69
2023/05/17 12:31:12;;;;;;;;;;;11.10;99.90;;;;;;5086003;28;20175;-69
2023/05/17 12:33:41;;;;;;;;;;;11.20;99.90;;;;;;5085720;28;19952;-69
2023/05/17 12:36:11;;;;;;;;;;;11.30;99.90;;;;;;5092689;28;19920;-69
2023/05/17 12:38:39;;;;;;;;;;;11.40;99.90;;;;;;5085592;28;19984;-70
2023/05/17 12:41:07;;;;;;;;;;;11.50;99.90;;;;;;5085712;28;19928;-70
2023/05/17 12:43:34;;;;;;;;;;;11.50;99.90;;;;;;5085536;28;19952;-70
2023/05/17 12:46:05;;;;;;;;;;;11.50;99.90;;;;;;5094610;28;19926;-69
2023/05/17 12:48:33;;;;;;;;;;;11.50;99.90;;;;;;5085530;28;19927;-69
2023/05/17 12:51:06;;;;;;;;;;;11.70;99.90;;;;;;5101437;28;19951;-69
2023/05/17 12:53:37;;;;;;;;;;;11.70;99.90;;;;;;5105833;28;19979;-69
2023/05/17 12:56:04;;;;;;;;;;;11.80;99.90;;;;;;5098890;28;19920;-68
2023/05/17 12:58:31;;;;;;;;;;;11.50;99.90;;;;;;5104027;28;19990;-69
2023/05/17 13:00:58;;;;;;;;;;;11.60;99.90;;;;;;5105418;28;19920;-68
2023/05/17 13:03:26;;;;;;;;;;;11.50;99.90;;;;;;5097211;28;20320;-69
2023/05/17 13:05:59;;;;;;;;;;;11.60;99.90;;;;;;5084939;28;19921;-68
2023/05/17 13:08:27;;;;;;;;;;;11.70;99.90;;;;;;5085272;28;19976;-70
2023/05/17 13:11:04;;;;;;;;;;;11.90;99.90;;;;;;5085317;28;19921;-69
2023/05/17 13:13:32;;;;;;;;;;;12.00;99.90;;;;;;5084704;28;19983;-69
2023/05/17 13:15:59;;;;;;;;;;;12.10;99.90;;;;;;5084668;28;19983;-69
2023/05/17 13:18:26;;;;;;;;;;;12.00;99.90;;;;;;5083581;28;19998;-71
2023/05/17 13:20:52;;;;;;;;;;;12.10;99.90;;;;;;5099992;28;19971;-68
2023/05/17 13:23:19;;;;;;;;;;;12.10;99.90;;;;;;5104825;28;19955;-66
2023/05/17 13:25:47;;;;;;;;;;;12.10;99.90;;;;;;5102548;28;19984;-67
2023/05/17 13:28:14;;;;;;;;;;;12.10;99.90;;;;;;5122199;28;19978;-68
2023/05/17 13:30:44;;;;;;;;;;;12.00;99.90;;;;;;5125141;28;19955;-68
2023/05/17 13:33:11;;;;;;;;;;;11.90;99.90;;;;;;5125455;28;19920;-68
2023/05/17 13:35:37;;;;;;;;;;;11.90;99.90;;;;;;5118079;28;19958;-67
2023/05/17 13:38:04;;;;;;;;;;;11.90;99.90;;;;;;5104337;28;19983;-68
2023/05/17 13:40:31;;;;;;;;;;;11.80;99.90;;;;;;5104727;28;19920;-67
2023/05/17 13:42:59;;;;;;;;;;;11.90;99.90;;;;;;5104833;28;19984;-68
2023/05/17 13:45:25;;;;;;;;;;;11.90;99.90;;;;;;5104375;28;19926;-70
2023/05/17 13:47:52;;;;;;;;;;;11.90;99.90;;;;;;5102964;28;19920;-69
2023/05/17 13:50:19;;;;;;;;;;;12.00;99.90;;;;;;5104289;28;20279;-69
2023/05/17 13:52:46;;;;;;;;;;;12.00;99.90;;;;;;5104401;28;20373;-70
2023/05/17 13:55:13;;;;;;;;;;;12.00;99.90;;;;;;5102005;28;19991;-70
2023/05/17 13:57:40;;;;;;;;;;;11.90;99.90;;;;;;5098839;28;19956;-68
2023/05/17 14:00:09;;;;;;;;;;;11.90;99.90;;;;;;5095297;28;19935;-70
2023/05/17 14:02:36;;;;;;;;;;;12.00;99.90;;;;;;5102553;28;19999;-68
2023/05/17 14:05:04;;;;;;;;;;;11.90;99.90;;;;;;5101875;28;19928;-66
2023/05/17 14:07:30;;;;;;;;;;;11.90;99.90;;;;;;5101150;28;20382;-66
2023/05/17 14:09:57;;;;;;;;;;;12.00;99.90;;;;;;5101108;28;19928;-66
2023/05/17 14:12:24;;;;;;;;;;;12.00;99.90;;;;;;5102005;28;19968;-65
2023/05/17 14:14:50;;;;;;;;;;;12.00;99.90;;;;;;5092607;28;19951;-66
2023/05/17 14:17:18;;;;;;;;;;;12.00;99.90;;;;;;5081073;28;20035;-70
2023/05/17 14:19:45;;;;;;;;;;;12.20;99.90;;;;;;5082301;28;20345;-68
2023/05/17 14:22:12;;;;;;;;;;;12.20;99.90;;;;;;5084968;28;19998;-67
2023/05/17 14:24:39;;;;;;;;;;;12.30;99.90;;;;;;5102493;28;20208;-67
2023/05/17 14:27:06;;;;;;;;;;;12.30;99.90;;;;;;5115126;28;20276;-66